< < Back
Terminal Aerodrome Forecast


Current Version              Previous Versions:   1  2  3  4  5  6  7  8  9  

Terminal Aerodrome Forecast

020
FTUS42 KFFC 271720
TAFMCN
TAF
KMCN 271720Z 2718/2818 33004KT P6SM SCT045 SCT200
     FM280300 05003KT P6SM BKN150
     FM281400 06010KT P6SM SCT040 BKN120=



Latest METAR

882
SAUS80 KWBC 281600
MTRMCN
METAR KMCN 281553Z 12009KT 10SM FEW029 19/10 A2992 RMK AO2 SLP131
T01890100


USA.gov is the U.S. government's official web portal to all federal, state and local government web resources and services.